Alba Iulia, Romania

11:58 PM EET on January 16, 2017 (GMT +0200)
Miercurea Sibiului | | Change Station

Elev 981 ft 45.89 °N, 23.80 °E | Updated 3 minutes ago

Overcast
Overcast
19.0 °F
Feels Like 19 °F
N
0.7
Wind Variable Wind from South
Gusts 1.6 mph

Today
High -- | Low -- °F
--% Chance of Precip.
Yesterday
High -- | Low -- °F
Precip. -- in
Pressure 30.09 in
Visibility -9999.0 miles
Clouds Few 7200 ft
Windchill 19 °F
Dew Point 11 °F
Humidity 69%
Rainfall 0.00 in
Snow Depth Not available.
8:03 AM 5:08 PM
Waning Gibbous, 78% visible
METAR LRSB 162130Z AUTO VRB01KT 4900 BR FEW072/// M07/M09 Q1019
Pressure 30.09 in
Visibility -9999.0 miles
Clouds Few 7200 ft
Windchill 19 °F
Dew Point 11 °F
Humidity 69%
Rainfall 0.00 in
Snow Depth Not available.
8:03 AM 5:08 PM
Waning Gibbous, 78% visible
METAR LRSB 162130Z AUTO VRB01KT 4900 BR FEW072/// M07/M09 Q1019

Get Your Daily Forecast Email!

Thanks for signing up!

Be on the lookout for a verification email in your inbox.

You'll start receiving the daily forecast at 8 AM.

×

10-Day Weather Forecast

×

Almanac

Astronomy

Jan. 16, 2017 Rise Set
Actual Time
Civil Twilight
Nautical Twilight
Astronomical Twilight
Moon
Length of Visible Light
Length of Day
Tomorrow will be .
, % of the Moon is Illuminated

Today's Extremes

Country Highs Country Lows

Community

WunderPhotos

Upload Photos

1,962,540 photos uploaded!

WunderBlog® & News

Nearby

Air Quality

  Air Quality AQ Index Pollutant
Not available.

Snow Depth

Station Depth Elevation

Earthquake Activity

City Distance Mag. Time & Date
Minimum magnitude displayed is 2.5.

Coastal Water Temperatures

Place Temperature

Stations

Nearby Weather Stations

Station Location Temp. Windchill Dew Point Humidity Wind Precip. Elev Updated Type